Time;durP1;ratioP1;P1;durP2;ratioP2;P2;SDS_P1;SDS_P2;PMS_P1;PMS_P2;Temp;Humidity;BMP_temperature;BMP_pressure;BME280_temperature;BME280_humidity;BME280_pressure;Samples;Min_cycle;Max_cycle;Signal;HPM_P1;HPM_P2
2023/01/09 00:01:27;;;;;;;4.40;1.38;;;8.60;99.90;;;;;;5076440;28;20374;-92
2023/01/09 00:03:52;;;;;;;;;;;8.50;99.90;;;;;;5095484;28;20044;-91
2023/01/09 00:06:18;;;;;;;6.22;1.50;;;8.60;99.90;;;;;;5080860;28;19926;-91
2023/01/09 00:08:44;;;;;;;6.63;1.50;;;8.50;99.90;;;;;;5097567;28;20092;-91
2023/01/09 00:11:09;;;;;;;6.10;1.60;;;8.60;99.90;;;;;;5079558;28;20106;-90
2023/01/09 00:13:36;;;;;;;5.97;1.65;;;8.60;99.90;;;;;;5097227;28;20039;-92
2023/01/09 00:16:03;;;;;;;6.28;1.55;;;8.60;99.90;;;;;;5079906;28;20051;-91
2023/01/09 00:18:29;;;;;;;4.40;1.27;;;8.60;99.90;;;;;;5096815;28;20046;-91
2023/01/09 00:20:58;;;;;;;4.38;1.33;;;8.60;99.90;;;;;;5080422;28;20416;-91
2023/01/09 00:23:23;;;;;;;5.38;1.63;;;8.60;99.90;;;;;;5079667;28;20039;-92
2023/01/09 00:25:49;;;;;;;6.43;1.65;;;8.60;99.90;;;;;;5115745;28;20176;-92
2023/01/09 00:28:14;;;;;;;7.40;1.65;;;8.60;99.90;;;;;;5114997;28;20036;-91
2023/01/09 00:30:40;;;;;;;4.63;1.60;;;8.60;99.90;;;;;;5079859;28;20452;-92
2023/01/09 00:33:05;;;;;;;6.30;1.63;;;8.60;99.90;;;;;;5079909;28;20169;-91
2023/01/09 00:35:31;;;;;;;4.75;1.45;;;8.60;99.90;;;;;;5095571;28;20036;-92
2023/01/09 00:37:57;;;;;;;7.15;1.58;;;8.60;99.90;;;;;;5097307;28;20467;-92
2023/01/09 00:40:22;;;;;;;4.78;1.65;;;8.60;99.90;;;;;;5080310;28;20031;-91
2023/01/09 00:42:53;;;;;;;4.63;1.52;;;8.60;99.90;;;;;;5078572;28;20558;-91
2023/01/09 00:45:27;;;;;;;6.78;1.65;;;8.50;99.90;;;;;;5080449;28;20043;-91
2023/01/09 00:47:54;;;;;;;5.63;1.88;;;8.50;99.90;;;;;;5095593;28;20039;-92
2023/01/09 00:50:23;;;;;;;6.30;1.63;;;8.50;99.90;;;;;;5097168;28;20039;-91
2023/01/09 00:52:52;;;;;;;6.63;1.70;;;8.50;99.90;;;;;;5078715;28;20084;-91
2023/01/09 00:55:17;;;;;;;7.22;2.13;;;8.50;99.90;;;;;;5096163;28;20049;-91
2023/01/09 00:57:43;;;;;;;3.95;1.15;;;8.50;99.90;;;;;;5078771;28;20031;-91
2023/01/09 01:00:10;;;;;;;4.35;1.35;;;8.40;99.90;;;;;;5078078;28;20031;-91
2023/01/09 01:02:35;;;;;;;3.30;1.00;;;8.30;99.90;;;;;;5078918;28;20065;-92
2023/01/09 01:07:45;;;;;;;3.72;1.10;;;8.30;99.90;;;;;;5095506;28;20075;-92
2023/01/09 01:10:18;;;;;;;2.95;1.00;;;8.20;99.90;;;;;;5079478;28;20074;-92
2023/01/09 01:12:45;;;;;;;5.57;1.60;;;8.20;99.90;;;;;;5077610;28;20539;-92
2023/01/09 01:15:11;;;;;;;6.05;1.95;;;8.20;99.90;;;;;;5078172;28;20038;-93
2023/01/09 01:17:38;;;;;;;4.28;1.70;;;8.20;99.90;;;;;;5078184;28;20028;-92
2023/01/09 01:20:07;;;;;;;7.22;1.98;;;8.20;99.90;;;;;;5078304;28;20032;-92
2023/01/09 01:22:33;;;;;;;6.53;2.33;;;8.20;99.90;;;;;;5095933;28;20512;-92
2023/01/09 01:24:58;;;;;;;7.53;2.08;;;8.20;99.90;;;;;;5077873;28;20513;-92
2023/01/09 01:27:24;;;;;;;5.88;1.92;;;8.20;99.90;;;;;;5078876;28;20039;-91
2023/01/09 01:29:50;;;;;;;6.38;2.20;;;8.20;99.90;;;;;;5077998;28;20039;-91
2023/01/09 01:32:15;;;;;;;5.65;2.13;;;8.20;99.90;;;;;;5095445;28;20039;-93
2023/01/09 01:34:41;;;;;;;8.40;2.88;;;8.20;99.90;;;;;;5077052;28;20122;-92
2023/01/09 01:37:07;;;;;;;5.30;1.98;;;8.20;99.90;;;;;;5077465;28;20063;-91
2023/01/09 01:39:32;;;;;;;5.53;1.88;;;8.20;99.90;;;;;;5078475;28;20032;-92
2023/01/09 01:41:58;;;;;;;4.60;1.67;;;8.20;99.90;;;;;;5077855;28;20094;-92
2023/01/09 01:44:55;;;;;;;4.97;1.88;;;8.20;99.90;;;;;;5078790;28;20119;-92
2023/01/09 01:47:23;;;;;;;2.83;1.10;;;8.20;99.90;;;;;;5074134;28;20031;-91
2023/01/09 01:49:49;;;;;;;5.38;1.67;;;8.20;99.90;;;;;;5079041;28;20031;-92
2023/01/09 01:52:18;;;;;;;3.53;1.40;;;8.10;99.90;;;;;;5077568;28;20629;-92
2023/01/09 01:54:45;;;;;;;4.53;1.23;;;8.10;99.90;;;;;;5095333;28;20054;-92
2023/01/09 01:57:11;;;;;;;3.88;1.48;;;8.10;99.90;;;;;;5077813;28;20400;-92
2023/01/09 01:59:41;;;;;;;3.47;1.20;;;8.10;99.90;;;;;;5078566;28;20039;-91
2023/01/09 02:02:07;;;;;;;3.67;1.20;;;8.00;99.90;;;;;;5077683;28;20508;-92
2023/01/09 02:04:38;;;;;;;2.75;0.93;;;8.00;99.90;;;;;;5093378;28;20032;-92
2023/01/09 02:07:07;;;;;;;4.28;1.02;;;8.00;99.90;;;;;;5077551;28;20462;-92
2023/01/09 02:09:33;;;;;;;3.13;1.25;;;7.90;99.90;;;;;;5075705;28;20039;-92
2023/01/09 02:12:00;;;;;;;5.53;1.25;;;7.90;99.90;;;;;;5094495;28;20400;-92
2023/01/09 02:14:29;;;;;;;3.83;1.00;;;7.90;99.90;;;;;;5076273;28;20040;-92
2023/01/09 02:17:16;;;;;;;3.78;1.10;;;7.80;99.90;;;;;;5094196;28;20039;-91
2023/01/09 02:19:54;;;;;;;5.50;1.00;;;7.80;99.90;;;;;;5094002;28;20085;-91
2023/01/09 02:22:50;;;;;;;1.88;0.90;;;7.80;99.90;;;;;;5076927;28;20032;-92
2023/01/09 02:25:51;;;;;;;4.03;0.90;;;7.80;99.90;;;;;;5076912;28;20040;-93
2023/01/09 02:28:40;;;;;;;3.47;1.02;;;7.70;99.90;;;;;;5032817;28;20070;-92
2023/01/09 02:31:40;;;;;;;4.78;1.45;;;7.70;99.90;;;;;;5060431;28;20542;-92
2023/01/09 02:34:28;;;;;;;5.65;1.10;;;7.70;99.90;;;;;;5077079;28;20047;-92
2023/01/09 02:37:31;;;;;;;6.60;1.20;;;7.70;99.90;;;;;;5076229;28;20413;-92
2023/01/09 02:40:16;;;;;;;4.90;0.88;;;7.60;99.90;;;;;;5056847;28;20036;-93
2023/01/09 02:42:44;;;;;;;3.30;1.02;;;7.60;99.90;;;;;;5057196;28;20032;-91
2023/01/09 02:45:10;;;;;;;2.83;0.80;;;7.60;99.90;;;;;;5093330;28;20130;-91
2023/01/09 02:47:46;;;;;;;6.85;1.27;;;7.60;99.90;;;;;;5077496;28;20043;-92
2023/01/09 02:50:23;;;;;;;4.15;1.70;;;7.50;99.90;;;;;;5076207;28;20424;-92
2023/01/09 02:53:23;;;;;;;3.58;1.02;;;7.50;99.90;;;;;;5077136;28;20048;-92
2023/01/09 02:56:30;;;;;;;3.70;1.08;;;7.50;99.90;;;;;;5076215;28;20055;-92
2023/01/09 02:59:08;;;;;;;4.13;0.98;;;7.40;99.90;;;;;;4996519;28;20446;-92
2023/01/09 03:01:46;;;;;;;1.83;0.98;;;7.40;99.90;;;;;;5012695;28;20048;-92
2023/01/09 03:04:18;;;;;;;3.80;1.10;;;7.30;99.90;;;;;;5034009;28;20127;-92
2023/01/09 03:06:54;;;;;;;4.28;1.05;;;7.30;99.90;;;;;;5073787;28;20097;-92
2023/01/09 03:09:23;;;;;;;3.47;1.00;;;7.20;99.90;;;;;;5088991;28;20527;-91
2023/01/09 03:11:55;;;;;;;4.05;1.20;;;7.20;99.90;;;;;;5077153;28;20081;-92
2023/01/09 03:14:24;;;;;;;3.95;1.38;;;7.10;99.90;;;;;;5076404;28;20402;-91
2023/01/09 03:16:55;;;;;;;3.25;1.20;;;7.10;99.90;;;;;;5092546;28;20117;-92
2023/01/09 03:19:25;;;;;;;5.82;1.33;;;7.10;99.90;;;;;;5076023;28;20039;-92
2023/01/09 03:21:52;;;;;;;4.80;1.88;;;7.00;99.90;;;;;;5075048;28;20075;-92
2023/01/09 03:24:17;;;;;;;5.25;1.52;;;7.00;99.90;;;;;;5075891;28;20096;-92
2023/01/09 03:26:43;;;;;;;4.63;1.38;;;6.90;99.90;;;;;;5075787;28;20405;-92
2023/01/09 03:29:09;;;;;;;5.03;1.50;;;6.90;99.90;;;;;;5076478;28;20039;-92
2023/01/09 03:31:35;;;;;;;5.80;1.63;;;6.80;99.90;;;;;;5093299;28;20040;-92
2023/01/09 03:34:00;;;;;;;4.65;1.58;;;6.80;99.90;;;;;;5093373;28;20051;-92
2023/01/09 03:36:26;;;;;;;8.00;1.60;;;6.70;99.90;;;;;;5092298;28;20043;-92
2023/01/09 03:38:52;;;;;;;7.93;2.10;;;6.70;99.90;;;;;;5092937;28;20489;-92
2023/01/09 03:41:18;;;;;;;7.22;1.70;;;6.70;99.90;;;;;;5076978;28;20138;-92
2023/01/09 03:43:44;;;;;;;4.47;1.73;;;6.60;99.90;;;;;;5075244;28;20043;-92
2023/01/09 03:46:10;;;;;;;6.38;1.80;;;6.60;99.90;;;;;;5076832;28;20109;-92
2023/01/09 03:48:35;;;;;;;6.60;1.95;;;6.50;99.90;;;;;;5071072;28;20043;-91
2023/01/09 03:51:01;;;;;;;5.32;1.70;;;6.50;99.90;;;;;;5093434;28;20177;-92
2023/01/09 03:53:27;;;;;;;6.80;1.98;;;6.40;99.90;;;;;;5091788;28;20492;-92
2023/01/09 03:55:55;;;;;;;5.60;1.95;;;6.40;99.90;;;;;;5075418;28;20390;-92
2023/01/09 03:58:22;;;;;;;5.97;1.90;;;6.30;99.90;;;;;;5075032;28;20118;-92
2023/01/09 04:00:48;;;;;;;5.50;2.38;;;6.30;99.90;;;;;;5075433;28;20161;-91
2023/01/09 04:03:14;;;;;;;7.53;2.47;;;6.30;99.90;;;;;;5076319;28;20485;-91
2023/01/09 04:05:40;;;;;;;8.02;2.10;;;6.30;99.90;;;;;;5075720;28;20046;-92
2023/01/09 04:08:06;;;;;;;6.40;1.83;;;6.30;99.90;;;;;;5076707;28;20493;-92
2023/01/09 04:10:32;;;;;;;8.85;2.60;;;6.30;99.90;;;;;;5075954;28;20046;-92
2023/01/09 04:12:58;;;;;;;7.25;2.88;;;6.30;99.90;;;;;;5076155;28;20071;-92
2023/01/09 04:15:24;;;;;;;7.72;3.10;;;6.30;99.90;;;;;;5076495;28;20497;-92
2023/01/09 04:17:50;;;;;;;10.02;2.88;;;6.30;99.90;;;;;;5091961;28;20490;-92
2023/01/09 04:20:15;;;;;;;10.60;3.92;;;6.30;99.90;;;;;;5076186;28;20092;-92
2023/01/09 04:22:41;;;;;;;12.38;3.42;;;6.30;99.90;;;;;;5075485;28;20093;-91
2023/01/09 04:25:07;;;;;;;8.55;3.83;;;6.30;99.90;;;;;;5075720;28;20036;-92
2023/01/09 04:27:34;;;;;;;9.38;4.35;;;6.20;99.90;;;;;;5076457;28;20043;-92
2023/01/09 04:29:59;;;;;;;9.05;4.32;;;6.20;99.90;;;;;;5075136;28;20524;-92
2023/01/09 04:32:26;;;;;;;11.05;4.32;;;6.10;99.90;;;;;;5075226;28;20043;-92
2023/01/09 04:34:52;;;;;;;9.40;4.22;;;6.10;99.90;;;;;;5074434;28;20051;-91
2023/01/09 04:37:18;;;;;;;10.88;4.43;;;6.10;99.90;;;;;;5091574;28;20382;-91
2023/01/09 04:39:44;;;;;;;9.60;4.57;;;6.10;99.90;;;;;;5103428;28;20039;-92
2023/01/09 04:42:10;;;;;;;10.70;4.35;;;6.00;99.90;;;;;;5074838;28;20514;-92
2023/01/09 04:44:36;;;;;;;12.88;5.80;;;6.00;99.90;;;;;;5075610;28;20043;-91
2023/01/09 04:47:01;;;;;;;14.25;5.72;;;6.00;99.90;;;;;;5091174;28;20036;-91
2023/01/09 04:49:27;;;;;;;12.88;5.85;;;6.00;99.90;;;;;;5077379;28;20047;-92
2023/01/09 04:51:53;;;;;;;10.90;5.00;;;5.90;99.90;;;;;;5078372;28;20115;-92
2023/01/09 04:54:19;;;;;;;14.90;5.65;;;5.90;99.90;;;;;;5096192;28;20035;-92
2023/01/09 04:56:45;;;;;;;12.30;5.55;;;5.90;99.90;;;;;;5078947;28;20032;-92
2023/01/09 04:59:11;;;;;;;9.85;5.05;;;5.90;99.90;;;;;;5079159;28;20043;-92
2023/01/09 05:01:36;;;;;;;9.95;4.78;;;5.80;99.90;;;;;;5096395;28;20039;-92
2023/01/09 05:04:02;;;;;;;11.38;5.38;;;5.80;99.90;;;;;;5095078;28;20034;-92
2023/01/09 05:06:28;;;;;;;12.07;4.88;;;5.80;99.90;;;;;;5079853;28;20044;-90
2023/01/09 05:08:55;;;;;;;13.93;5.35;;;5.90;99.90;;;;;;5079602;28;20036;-91
2023/01/09 05:11:21;;;;;;;11.27;4.97;;;5.90;99.90;;;;;;5078503;28;20039;-91
2023/01/09 05:13:47;;;;;;;11.18;5.32;;;5.90;99.90;;;;;;5079370;28;20456;-92
2023/01/09 05:16:12;;;;;;;9.77;4.50;;;5.90;99.90;;;;;;5094789;28;20035;-91
2023/01/09 05:18:38;;;;;;;10.98;4.10;;;5.90;99.90;;;;;;5078829;28;20063;-91
2023/01/09 05:21:04;;;;;;;11.10;4.50;;;5.90;99.90;;;;;;5077915;28;20096;-91
2023/01/09 05:23:29;;;;;;;11.80;4.13;;;5.90;99.90;;;;;;5094308;28;20031;-91
2023/01/09 05:25:55;;;;;;;10.88;4.18;;;5.90;99.90;;;;;;5078371;28;20083;-91
2023/01/09 05:28:20;;;;;;;10.18;3.92;;;5.80;99.90;;;;;;5077371;28;20122;-91
2023/01/09 05:30:47;;;;;;;10.25;4.82;;;5.80;99.90;;;;;;5078940;28;20042;-91
2023/01/09 05:33:12;;;;;;;10.05;4.40;;;5.80;99.90;;;;;;5077893;28;20119;-91
2023/01/09 05:35:38;;;;;;;9.05;3.95;;;5.80;99.90;;;;;;5078888;28;20479;-91
2023/01/09 05:38:03;;;;;;;13.48;4.18;;;5.80;99.90;;;;;;5078479;28;20513;-91
2023/01/09 05:40:29;;;;;;;12.50;4.97;;;5.80;99.90;;;;;;5095377;28;20051;-91
2023/01/09 05:42:55;;;;;;;9.98;4.00;;;5.80;99.90;;;;;;5078852;28;20123;-91
2023/01/09 05:45:20;;;;;;;9.40;3.75;;;5.80;99.90;;;;;;5077698;28;20034;-91
2023/01/09 05:47:46;;;;;;;8.88;3.70;;;5.80;99.90;;;;;;5079139;28;20047;-92
2023/01/09 05:50:12;;;;;;;8.93;3.65;;;5.80;99.90;;;;;;5078570;28;20506;-91
2023/01/09 05:52:38;;;;;;;10.25;3.70;;;5.80;99.90;;;;;;5077890;28;20039;-91
2023/01/09 05:55:05;;;;;;;12.57;4.50;;;5.80;99.90;;;;;;5077712;28;20100;-92
2023/01/09 05:57:31;;;;;;;10.82;4.05;;;5.80;99.90;;;;;;5077205;28;20039;-91
2023/01/09 05:59:56;;;;;;;9.00;3.53;;;5.80;99.90;;;;;;5093962;28;20043;-91
2023/01/09 06:02:22;;;;;;;9.32;3.78;;;5.70;99.90;;;;;;5076652;28;20176;-91
2023/01/09 06:04:48;;;;;;;11.10;4.53;;;5.70;99.90;;;;;;5077754;28;20039;-91
2023/01/09 06:07:13;;;;;;;10.10;3.70;;;5.70;99.90;;;;;;5095548;28;20036;-91
2023/01/09 06:09:39;;;;;;;10.70;4.30;;;5.70;99.90;;;;;;5077171;28;20046;-91
2023/01/09 06:12:06;;;;;;;14.43;4.10;;;5.80;99.90;;;;;;5078326;28;20130;-91
2023/01/09 06:14:31;;;;;;;10.93;3.67;;;5.80;99.90;;;;;;5078421;28;20027;-92
2023/01/09 06:16:57;;;;;;;8.43;3.33;;;5.80;99.90;;;;;;5093878;28;20157;-91
2023/01/09 06:19:23;;;;;;;9.45;3.53;;;5.80;99.90;;;;;;5078534;28;20485;-91
2023/01/09 06:21:48;;;;;;;11.02;3.78;;;5.90;99.90;;;;;;5071931;28;20165;-91
2023/01/09 06:24:14;;;;;;;10.30;3.47;;;5.90;99.90;;;;;;5077995;28;20098;-92
2023/01/09 06:26:40;;;;;;;7.40;2.90;;;5.90;99.90;;;;;;5077733;28;20051;-92
2023/01/09 06:29:08;;;;;;;8.65;2.72;;;5.80;99.90;;;;;;5111909;28;20051;-92
2023/01/09 06:31:34;;;;;;;8.50;3.08;;;5.80;99.90;;;;;;5076527;28;20040;-91
2023/01/09 06:33:59;;;;;;;9.50;2.95;;;5.80;99.90;;;;;;5063625;28;20093;-92
2023/01/09 06:36:25;;;;;;;9.80;2.92;;;5.70;99.90;;;;;;5056599;28;20043;-91
2023/01/09 06:38:50;;;;;;;6.95;2.60;;;5.70;99.90;;;;;;5067249;28;20040;-91
2023/01/09 06:41:17;;;;;;;8.23;2.95;;;5.70;99.90;;;;;;5077359;28;20037;-91
2023/01/09 06:43:42;;;;;;;6.65;2.60;;;5.70;99.90;;;;;;5076714;28;20122;-91
2023/01/09 06:46:08;;;;;;;9.13;2.97;;;5.70;99.90;;;;;;5077037;28;20479;-91
2023/01/09 06:48:34;;;;;;;9.23;2.70;;;5.70;99.90;;;;;;5077371;28;20039;-91
2023/01/09 06:51:00;;;;;;;11.80;3.13;;;5.70;99.90;;;;;;5093662;28;20496;-91
2023/01/09 06:53:25;;;;;;;7.90;2.70;;;5.60;99.90;;;;;;5076797;28;20123;-92
2023/01/09 06:55:51;;;;;;;7.88;2.72;;;5.60;99.90;;;;;;5077299;28;20134;-91
2023/01/09 06:58:17;;;;;;;8.02;2.40;;;5.60;99.90;;;;;;5074945;28;20092;-92
2023/01/09 07:00:42;;;;;;;7.97;2.50;;;5.60;99.90;;;;;;5075780;28;20062;-91
2023/01/09 07:03:09;;;;;;;7.00;2.22;;;5.60;99.90;;;;;;5092832;28;20046;-91
2023/01/09 07:05:39;;;;;;;11.93;2.45;;;5.60;99.90;;;;;;5068052;28;20040;-91
2023/01/09 07:08:05;;;;;;;8.68;2.90;;;5.60;99.90;;;;;;5076937;28;20122;-92
2023/01/09 07:10:30;;;;;;;11.82;2.33;;;5.60;99.90;;;;;;5076616;28;20066;-91
2023/01/09 07:12:56;;;;;;;7.55;1.98;;;5.60;99.90;;;;;;5076306;28;20489;-91
2023/01/09 07:15:22;;;;;;;9.20;2.35;;;5.60;99.90;;;;;;5093350;28;20044;-92
2023/01/09 07:17:51;;;;;;;8.43;2.38;;;5.60;99.90;;;;;;5076511;28;20512;-92
2023/01/09 07:20:17;;;;;;;8.27;2.65;;;5.60;99.90;;;;;;5094088;28;20035;-91
2023/01/09 07:22:44;;;;;;;9.77;2.50;;;5.60;99.90;;;;;;5092408;28;20034;-91
2023/01/09 07:25:10;;;;;;;8.55;2.25;;;5.60;99.90;;;;;;5076904;28;20043;-91
2023/01/09 07:27:35;;;;;;;9.75;2.60;;;5.70;99.90;;;;;;5075908;28;20105;-91
2023/01/09 07:30:01;;;;;;;9.27;2.42;;;5.70;99.90;;;;;;5074318;28;20043;-92
2023/01/09 07:32:27;;;;;;;11.73;2.55;;;5.70;99.90;;;;;;5092935;28;20036;-92
2023/01/09 07:34:52;;;;;;;8.90;2.13;;;5.80;99.90;;;;;;5091723;28;20394;-93
2023/01/09 07:37:18;;;;;;;7.28;2.15;;;5.80;99.90;;;;;;5076618;28;20039;-92
2023/01/09 07:39:43;;;;;;;7.80;2.03;;;5.80;99.90;;;;;;5076599;28;20020;-92
2023/01/09 07:42:10;;;;;;;9.30;2.28;;;5.90;99.90;;;;;;5091628;28;20092;-92
2023/01/09 07:44:36;;;;;;;10.18;2.15;;;5.90;99.90;;;;;;5076621;28;20036;-92
2023/01/09 07:47:02;;;;;;;7.40;2.65;;;5.90;99.90;;;;;;5075392;28;20532;-92
2023/01/09 07:49:27;;;;;;;7.88;1.90;;;5.90;99.90;;;;;;5076577;28;20080;-92
2023/01/09 07:51:54;;;;;;;12.77;2.67;;;6.00;99.90;;;;;;5076016;28;20043;-91
2023/01/09 07:54:19;;;;;;;7.07;1.98;;;6.00;99.90;;;;;;5075544;28;20172;-92
2023/01/09 07:56:46;;;;;;;6.03;2.20;;;6.00;99.90;;;;;;5066735;28;20122;-92
2023/01/09 07:59:12;;;;;;;8.60;2.67;;;6.00;99.90;;;;;;5074733;28;20043;-91
2023/01/09 08:01:37;;;;;;;8.50;2.40;;;6.10;99.90;;;;;;5074892;28;20036;-91
2023/01/09 08:04:03;;;;;;;9.95;2.88;;;6.10;99.90;;;;;;5092463;28;20036;-92
2023/01/09 08:06:30;;;;;;;6.57;2.13;;;6.10;99.90;;;;;;5091561;28;20045;-92
2023/01/09 08:08:56;;;;;;;6.90;2.00;;;6.10;99.90;;;;;;5092192;28;20039;-92
2023/01/09 08:11:22;;;;;;;8.40;2.15;;;6.20;99.90;;;;;;5075324;28;20141;-92
2023/01/09 08:13:48;;;;;;;6.78;2.28;;;6.20;99.90;;;;;;5075651;28;20114;-91
2023/01/09 08:16:14;;;;;;;8.18;2.10;;;6.20;99.90;;;;;;5075961;28;20126;-92
2023/01/09 08:18:40;;;;;;;5.65;2.08;;;6.20;99.90;;;;;;5070462;28;20496;-91
2023/01/09 08:21:06;;;;;;;8.68;2.15;;;6.20;99.90;;;;;;5092974;28;20516;-91
2023/01/09 08:23:32;;;;;;;7.35;2.15;;;6.30;99.90;;;;;;5091825;28;20105;-91
2023/01/09 08:25:58;;;;;;;7.32;2.40;;;6.30;99.90;;;;;;5079834;28;20118;-91
2023/01/09 08:28:24;;;;;;;7.80;2.40;;;6.30;99.90;;;;;;5075893;28;20047;-91
2023/01/09 08:30:50;;;;;;;7.50;2.50;;;6.30;99.90;;;;;;5079029;28;20035;-91
2023/01/09 08:33:15;;;;;;;6.88;2.53;;;6.40;99.90;;;;;;5078877;28;20512;-91
2023/01/09 08:35:43;;;;;;;8.98;2.38;;;6.40;99.90;;;;;;5076069;28;20044;-92
2023/01/09 08:38:08;;;;;;;10.35;2.80;;;6.40;99.90;;;;;;5068947;28;20114;-92
2023/01/09 08:40:34;;;;;;;12.52;2.83;;;6.40;99.90;;;;;;5066119;28;20448;-90
2023/01/09 08:48:47;;;;;;;7.63;1.83;;;6.50;99.90;;;;;;4975135;28;20051;-91
2023/01/09 08:51:13;;;;;;;10.40;2.53;;;6.50;99.90;;;;;;5044407;28;20055;-91
2023/01/09 08:53:38;;;;;;;9.25;2.58;;;6.50;99.90;;;;;;5095602;28;20041;-92
2023/01/09 08:56:04;;;;;;;6.53;2.30;;;6.60;99.90;;;;;;5095996;28;20132;-91
2023/01/09 08:58:30;;;;;;;7.20;2.00;;;6.60;99.90;;;;;;5079010;28;20408;-91
2023/01/09 09:00:57;;;;;;;8.75;1.95;;;6.60;99.90;;;;;;5095106;28;20035;-92
2023/01/09 09:03:23;;;;;;;8.15;2.08;;;6.60;99.90;;;;;;5078754;28;20122;-92
2023/01/09 09:05:49;;;;;;;9.43;3.03;;;6.60;99.90;;;;;;5095133;28;20083;-92
2023/01/09 09:08:15;;;;;;;8.15;2.13;;;6.60;99.90;;;;;;5078716;28;20097;-92
2023/01/09 09:10:41;;;;;;;8.10;2.25;;;6.70;99.90;;;;;;5077984;28;20116;-92
2023/01/09 09:13:06;;;;;;;9.02;2.15;;;6.70;99.90;;;;;;5091854;28;20048;-91
2023/01/09 09:15:33;;;;;;;5.82;1.98;;;6.70;99.90;;;;;;5059140;28;20490;-91
2023/01/09 09:18:04;;;;;;;12.50;2.50;;;6.80;99.90;;;;;;5075705;28;20074;-92
2023/01/09 09:20:32;;;;;;;8.25;2.17;;;6.80;99.90;;;;;;5077913;28;20100;-92
2023/01/09 09:22:58;;;;;;;8.90;2.35;;;6.80;99.90;;;;;;5093314;28;20464;-91
2023/01/09 09:25:24;;;;;;;10.05;2.20;;;6.90;99.90;;;;;;5078814;28;20148;-92
2023/01/09 09:27:50;;;;;;;8.55;2.28;;;6.90;99.90;;;;;;5078125;28;20108;-91
2023/01/09 09:30:17;;;;;;;9.55;2.25;;;7.00;99.90;;;;;;5077314;28;20492;-91
2023/01/09 09:32:44;;;;;;;6.93;2.10;;;7.00;99.90;;;;;;5077440;28;20031;-91
2023/01/09 09:35:10;;;;;;;9.75;2.25;;;7.10;99.90;;;;;;5075548;28;20396;-91
2023/01/09 09:37:36;;;;;;;8.43;2.38;;;7.10;99.90;;;;;;5095321;28;20046;-91
2023/01/09 09:40:02;;;;;;;5.65;1.98;;;7.10;99.90;;;;;;5076907;28;20027;-91
2023/01/09 09:45:30;;;;;;;7.47;1.88;;;7.20;99.90;;;;;;5094169;28;20083;-91
2023/01/09 09:48:21;;;;;;;7.43;2.25;;;7.20;99.90;;;;;;5083747;28;20081;-91
2023/01/09 09:51:05;;;;;;;7.07;2.17;;;7.20;99.90;;;;;;5068609;28;20497;-91
2023/01/09 09:53:37;;;;;;;6.07;1.80;;;7.30;99.90;;;;;;5066474;28;20117;-92
2023/01/09 09:56:03;;;;;;;6.90;2.08;;;7.30;99.90;;;;;;5067105;28;20040;-91
2023/01/09 09:58:37;;;;;;;6.85;1.95;;;7.30;99.90;;;;;;5068417;28;20063;-91
2023/01/09 10:01:04;;;;;;;6.30;2.03;;;7.30;99.90;;;;;;5066277;28;20507;-91
2023/01/09 10:03:53;;;;;;;9.07;2.10;;;7.30;99.90;;;;;;5082101;28;20485;-92
2023/01/09 10:06:30;;;;;;;6.65;1.80;;;7.30;99.90;;;;;;5066204;28;20074;-91
2023/01/09 10:09:33;;;;;;;8.75;2.15;;;7.30;99.90;;;;;;5068837;28;20066;-91
2023/01/09 10:12:02;;;;;;;6.15;1.83;;;7.30;99.90;;;;;;5066131;28;20468;-91
2023/01/09 10:14:29;;;;;;;6.15;1.83;;;7.30;99.90;;;;;;5066428;28;20036;-91
2023/01/09 10:17:10;;;;;;;6.97;2.13;;;7.30;99.90;;;;;;5067433;28;20405;-91
2023/01/09 10:20:07;;;;;;;9.02;2.15;;;7.30;99.90;;;;;;5067096;28;20050;-92
2023/01/09 10:23:01;;;;;;;7.95;2.55;;;7.30;99.90;;;;;;5065598;28;20548;-91
2023/01/09 10:25:30;;;;;;;5.97;1.92;;;7.30;99.90;;;;;;5082625;28;20082;-91
2023/01/09 10:27:56;;;;;;;6.82;1.55;;;7.40;99.90;;;;;;5069535;28;20044;-91
2023/01/09 10:31:06;;;;;;;5.35;1.77;;;7.30;99.90;;;;;;5064951;28;20089;-90
2023/01/09 10:33:49;;;;;;;7.25;2.03;;;7.40;99.90;;;;;;5031008;28;20059;-90
2023/01/09 10:36:29;;;;;;;7.60;2.35;;;7.40;99.90;;;;;;5064455;28;20138;-91
2023/01/09 10:38:58;;;;;;;7.00;2.33;;;7.40;99.90;;;;;;5066677;28;20078;-91
2023/01/09 10:41:40;;;;;;;6.22;2.08;;;7.40;99.90;;;;;;5079956;28;20157;-90
2023/01/09 10:44:27;;;;;;;11.32;2.20;;;7.40;99.90;;;;;;5067662;28;20028;-91
2023/01/09 10:46:54;;;;;;;7.93;2.05;;;7.30;99.90;;;;;;5061732;28;20478;-90
2023/01/09 10:49:22;;;;;;;8.82;2.50;;;7.30;99.90;;;;;;5080442;28;20031;-91
2023/01/09 10:51:55;;;;;;;7.72;2.30;;;7.30;99.90;;;;;;5064279;28;20036;-90
2023/01/09 10:54:22;;;;;;;6.90;2.03;;;7.30;99.90;;;;;;5083204;28;20043;-90
2023/01/09 10:56:55;;;;;;;7.78;2.13;;;7.30;99.90;;;;;;5067321;28;20512;-90
2023/01/09 10:59:23;;;;;;;5.63;2.17;;;7.30;99.90;;;;;;5065644;28;20543;-91
2023/01/09 11:01:48;;;;;;;5.95;2.40;;;7.30;99.90;;;;;;5080525;28;20043;-91
2023/01/09 11:04:29;;;;;;;6.72;2.65;;;7.30;99.90;;;;;;5064961;28;20035;-92
2023/01/09 11:06:59;;;;;;;7.97;2.38;;;7.30;99.90;;;;;;5075389;28;20084;-91
2023/01/09 11:09:25;;;;;;;8.90;2.30;;;7.30;99.90;;;;;;5075768;28;20043;-91
2023/01/09 11:11:51;;;;;;;6.20;2.72;;;7.30;99.90;;;;;;5075082;28;20035;-91
2023/01/09 11:14:30;;;;;;;6.13;2.55;;;7.30;99.90;;;;;;5077004;28;20046;-91
2023/01/09 11:17:02;;;;;;;7.15;2.67;;;7.30;99.90;;;;;;5075165;28;20431;-91
2023/01/09 11:19:31;;;;;;;5.70;2.38;;;7.20;99.90;;;;;;5093952;28;20043;-91
2023/01/09 11:22:14;;;;;;;7.60;2.65;;;7.20;99.90;;;;;;5076005;28;20120;-90
2023/01/09 11:24:40;;;;;;;;;;;7.20;99.90;;;;;;5057393;28;20051;-91
2023/01/09 11:27:12;;;;;;;8.35;2.60;;;7.20;99.90;;;;;;5075078;28;19916;-92
2023/01/09 11:29:41;;;;;;;6.57;2.55;;;7.20;99.90;;;;;;5075895;28;20036;-91
2023/01/09 11:32:21;;;;;;;6.47;2.83;;;7.20;99.90;;;;;;5076063;28;20575;-90
2023/01/09 11:34:47;;;;;;;7.07;2.55;;;7.20;99.90;;;;;;5093364;28;20050;-91
2023/01/09 11:37:27;;;;;;;7.13;2.80;;;7.20;99.90;;;;;;5073438;28;20080;-90
2023/01/09 11:39:53;;;;;;;8.27;2.97;;;7.20;99.90;;;;;;5064570;28;20485;-91
2023/01/09 11:45:17;;;;;;;7.45;2.92;;;7.20;99.90;;;;;;5082927;28;20032;-91
2023/01/09 11:47:43;;;;;;;8.43;3.28;;;7.20;99.90;;;;;;5066156;28;20039;-91
2023/01/09 11:50:19;;;;;;;8.13;3.22;;;7.20;99.90;;;;;;5067351;28;20036;-91
2023/01/09 11:52:56;;;;;;;7.40;3.03;;;7.20;99.90;;;;;;5075739;28;20055;-92
2023/01/09 11:55:21;;;;;;;7.72;3.67;;;7.20;99.90;;;;;;5093218;28;20044;-92
2023/01/09 11:57:51;;;;;;;8.13;3.13;;;7.20;99.90;;;;;;5092830;28;20178;-92
2023/01/09 12:00:26;;;;;;;8.68;3.42;;;7.30;99.90;;;;;;5055807;28;20042;-92
2023/01/09 12:03:17;;;;;;;9.48;3.92;;;7.30;99.90;;;;;;5062923;28;20111;-92
2023/01/09 12:06:00;;;;;;;7.85;3.55;;;7.30;99.90;;;;;;5058523;28;20413;-91
2023/01/09 12:08:25;;;;;;;;;;;7.30;99.90;;;;;;5065245;28;20078;-92
2023/01/09 12:10:54;;;;;;;10.40;4.50;;;7.30;99.90;;;;;;5064698;28;19974;-91
2023/01/09 12:13:53;;;;;;;10.25;4.55;;;7.40;99.90;;;;;;5065515;28;20042;-91
2023/01/09 12:16:28;;;;;;;8.95;4.75;;;7.40;99.90;;;;;;5061264;28;20051;-91
2023/01/09 12:19:10;;;;;;;10.90;4.13;;;7.40;99.90;;;;;;5066631;28;20032;-91
2023/01/09 12:21:52;;;;;;;9.23;4.47;;;7.50;99.90;;;;;;5080402;28;20444;-92
2023/01/09 12:24:40;;;;;;;10.32;4.97;;;7.50;99.90;;;;;;5063308;28;20097;-91
2023/01/09 12:27:36;;;;;;;9.88;4.40;;;7.50;99.90;;;;;;5068440;28;20558;-92
2023/01/09 12:30:43;;;;;;;9.82;5.32;;;7.50;99.90;;;;;;5083051;28;20040;-91
2023/01/09 12:33:22;;;;;;;11.80;5.38;;;7.50;99.90;;;;;;5066368;28;20118;-92
2023/01/09 12:36:13;;;;;;;10.52;4.20;;;7.60;99.90;;;;;;5065097;28;20044;-92
2023/01/09 12:38:54;;;;;;;10.00;4.22;;;7.50;99.90;;;;;;5081986;28;20515;-91
2023/01/09 12:41:43;;;;;;;11.05;5.53;;;7.50;99.90;;;;;;5067352;28;20035;-92
2023/01/09 12:44:40;;;;;;;13.05;6.25;;;7.60;99.90;;;;;;5083335;28;20074;-91
2023/01/09 12:47:24;;;;;;;11.50;5.80;;;7.60;99.90;;;;;;5067427;28;20473;-91
2023/01/09 12:50:11;;;;;;;10.38;5.30;;;7.60;99.90;;;;;;5068996;28;20048;-91
2023/01/09 12:52:47;;;;;;;11.60;5.57;;;7.60;99.90;;;;;;5063326;28;20073;-91
2023/01/09 12:55:22;;;;;;;12.98;5.93;;;7.60;99.90;;;;;;5066128;28;20038;-90
2023/01/09 12:57:50;;;;;;;15.68;7.07;;;7.70;99.90;;;;;;5082002;28;20036;-91
2023/01/09 13:00:25;;;;;;;14.70;6.57;;;7.70;99.90;;;;;;5091037;28;20110;-90
2023/01/09 13:03:14;;;;;;;13.18;5.78;;;7.70;99.90;;;;;;5075571;28;20386;-91
2023/01/09 13:05:46;;;;;;;13.18;5.97;;;7.70;99.90;;;;;;5074594;28;20047;-91
2023/01/09 13:08:31;;;;;;;10.97;5.40;;;7.70;99.90;;;;;;5076996;28;20043;-91
2023/01/09 13:11:22;;;;;;;13.20;6.07;;;7.70;99.90;;;;;;5074713;28;20031;-91
2023/01/09 13:14:00;;;;;;;12.93;5.20;;;7.70;99.90;;;;;;5095329;28;20126;-90
2023/01/09 13:16:48;;;;;;;14.65;6.55;;;7.70;99.90;;;;;;5079074;28;20054;-91
2023/01/09 13:19:20;;;;;;;13.52;6.43;;;7.70;99.90;;;;;;5058477;28;20485;-91
2023/01/09 13:21:45;;;;;;;15.15;6.97;;;7.80;99.90;;;;;;5078816;28;20515;-91
2023/01/09 13:24:23;;;;;;;16.40;6.60;;;7.80;99.90;;;;;;5078018;28;20031;-91
2023/01/09 13:26:57;;;;;;;13.73;6.72;;;7.80;99.90;;;;;;5079468;28;20048;-91